Home  > Rebate Center > Cooking > Range Hoods >  Approved for Outdoor Use: No

Rebate Center: Not Approved for Outdoor Use Range Hoods

Sort:

  • Mail In Rebates
  • Instant Savings
  • Free Delivery
  • Product Reviews
  • Top Ratings
  • Quick Ship

Displaying 81 - 100 of 254 Products 20 40 50 products per page  

1

2

3

4

5

6

7

8

BlueStar Manhattan Series BSMNHTTNSS

Wall Mount Hood with 3-Speed Blower Options, 750 Color Options, Hidden Controls, Dishwasher Safe Baffle Filters, Halogen Lamps and Top Discharge

BSMANH24SS 24" Width 01/01/2016 - 12/31/2016 Save $500 Download
BSMANH30SS 30" Width 01/01/2016 - 12/31/2016 Save $500 Download
BSMANH36SS 36" Width 01/01/2016 - 12/31/2016 Save $500 Download
BSMANH42SS 42" Width 01/01/2016 - 12/31/2016 Save $500 Download
BSMANH48SS 48" Width 01/01/2016 - 12/31/2016 Save $500 Download
BSMANH54SS 54" Width 01/01/2016 - 12/31/2016 Save $500 Download
BSMANH60SS 60" Width 01/01/2016 - 12/31/2016 Save $500 Download
BSMANH66SS 66" Width 01/01/2016 - 12/31/2016 Save $500 Download
Prizer Hoods Bonanza Series BONZ

Wall Mount Range Hood with Optional Blowers, 3-Speed Fan Control, High-Heat Sensor, Halogen Lights, Handcrafted 16 Gauge Material and Baffle Filters

BONZ30SS 30" Width, Brushed Stainless Steel 01/01/2016 - 12/31/2016 Save $500 Download
BONZ36SS 36" Width, Brushed Stainless Steel 01/01/2016 - 12/31/2016 Save $500 Download
BONZ42SS 42" Width, Brushed Stainless Steel 01/01/2016 - 12/31/2016 Save $500 Download
BONZ48SS 48" Width, Brushed Stainless Steel 01/01/2016 - 12/31/2016 Save $500 Download
BONZ54SS 54" Width, Brushed Stainless Steel 01/01/2016 - 12/31/2016 Save $500 Download
BONZ60SS 60" Width, Brushed Stainless Steel 01/01/2016 - 12/31/2016 Save $500 Download
BONZ66SS 66" Width, Brushed Stainless Steel 01/01/2016 - 12/31/2016 Save $500 Download
BlueStar Hampton Series BSHAMPTONIBB

Brushed Brass Island Hood with 3-Speed Blower Options, Hidden Controls, Baffle Filters, Halogen Lamps and Top Exhaust

BSHAMPI30BB 30" Width 01/01/2016 - 12/31/2016 Save $500 Download
BSHAMPI36BB 36" Width 01/01/2016 - 12/31/2016 Save $500 Download
BSHAMPI42BB 42" Width 01/01/2016 - 12/31/2016 Save $500 Download
BSHAMPI48BB 48" Width 01/01/2016 - 12/31/2016 Save $500 Download
BSHAMPI54BB 54" Width 01/01/2016 - 12/31/2016 Save $500 Download
BSHAMPI60BB 60" Width 01/01/2016 - 12/31/2016 Save $500 Download
BSHAMPI66BB 66" Width 01/01/2016 - 12/31/2016 Save $500 Download
BlueStar Poplar Series BSPOPLARBC

Brushed Copper Wall Mount Hood with 3-Speed Blower Options, Hidden Controls, Baffle Filters, Halogen Lamps and Reversible Top/Rear Exhaust

BSPOPL30BC 30" Width 01/01/2016 - 12/31/2016 Save $500 Download
BSPOPL36BC 36" Width 01/01/2016 - 12/31/2016 Save $500 Download
BSPOPL42BC 42" Width 01/01/2016 - 12/31/2016 Save $500 Download
BSPOPL48BC 48" Width 01/01/2016 - 12/31/2016 Save $500 Download
BSPOPL54BC 54" Width 01/01/2016 - 12/31/2016 Save $500 Download
BSPOPL60BC 60" Width 01/01/2016 - 12/31/2016 Save $500 Download
BSPOPL66BC 66" Width 01/01/2016 - 12/31/2016 Save $500 Download
Wolf PW2718

Wall Mount Canopy Range Hood with Infinite-Speed Blower Control, Automatic Heat Sentry, Heat Lamps, Baffle Filters and 27 Inch Depth

PW302718 30" Width 07/01/2016 - 03/31/2017 Receive a $1,000 Rebate or Free Wolf Gourmet Products Download
PW362718 36" Width 07/01/2016 - 03/31/2017 Receive a $1,000 Rebate or Free Wolf Gourmet Products Download
PW422718 42" Width 07/01/2016 - 03/31/2017 Receive a $1,000 Rebate or Free Wolf Gourmet Products Download
PW482718 48" Width 07/01/2016 - 03/31/2017 Receive a $1,000 Rebate or Free Wolf Gourmet Products Download
PW542718 54" Width 07/01/2016 - 03/31/2017 Receive a $1,000 Rebate or Free Wolf Gourmet Products Download
PW602718 60" Width 07/01/2016 - 03/31/2017 Receive a $1,000 Rebate or Free Wolf Gourmet Products Download
PW662718 66" Width 07/01/2016 - 03/31/2017 Receive a $1,000 Rebate or Free Wolf Gourmet Products Download
Wolf VI42S

42 Inch Island Chimney Range Hood with Optional Blowers, 3-Speed + Boost, Delay-Off, Filter Clean Indicator, Aluminum Mesh Filters and Front-Mounted Controls

VI42S   07/01/2016 - 03/31/2017 Receive a $1,000 Rebate or Free Wolf Gourmet Products Download
BlueStar Laredo Series BSLAREDOSS

Wall Mount Hood with 3-Speed Blower Options, 750 Color Options, Hidden Controls, Dishwasher Safe Baffle Filters, Halogen Lamps and Reversible Top/Rear Exhaust

BSLARE30SS 30" Width 01/01/2016 - 12/31/2016 Save $500 Download
BSLARE36SS 36" Width 01/01/2016 - 12/31/2016 Save $500 Download
BSLARE42SS 42" Width 01/01/2016 - 12/31/2016 Save $500 Download
BSLARE48SS 48" Width 01/01/2016 - 12/31/2016 Save $500 Download
BSLARE54SS 54" Width 01/01/2016 - 12/31/2016 Save $500 Download
BSLARE60SS 60" Width 01/01/2016 - 12/31/2016 Save $500 Download
BSLARE66SS 66" Width 01/01/2016 - 12/31/2016 Save $500 Download
Prizer Hoods Ponderosa Series PONDI

Island Range Hood with Optional Blowers, 3-Speed Fan Control, High-Heat Sensor, Halogen Lights, Handcrafted 16 Gauge Material and Baffle Filters

PONDI36SS 36" Width, Brushed Stainless Steel 01/01/2016 - 12/31/2016 Save $500 Download
PONDI42SS 42" Width, Brushed Stainless Steel 01/01/2016 - 12/31/2016 Save $500 Download
PONDI48SS 48" Width, Brushed Stainless Steel 01/01/2016 - 12/31/2016 Save $500 Download
PONDI54SS 54" Width, Brushed Stainless Steel 01/01/2016 - 12/31/2016 Save $500 Download
PONDI60SS 60" Width, Brushed Stainless Steel 01/01/2016 - 12/31/2016 Save $500 Download
Monogram ZV850SP

36 Inch Island Mount Chimney Range Hood with Internal Blower, 4-Speed Fan, Halogen Lamps, Push Button Controls and Recirculating Kit Included

ZV850SPSS 360 CFM 01/01/2016 - 12/31/2016 Save Up To $3,798 Download
BlueStar Laredo Series BSLAREDOIBB

Brushed Brass Island Hood with 3-Speed Blower Options, Hidden Controls, Baffle Filters and Halogen Lamps

BSLAREI30BB 30" Width 01/01/2016 - 12/31/2016 Save $500 Download
BSLAREI36BB 36" Width 01/01/2016 - 12/31/2016 Save $500 Download
BSLAREI42BB 42" Width 01/01/2016 - 12/31/2016 Save $500 Download
BSLAREI48BB 48" Width 01/01/2016 - 12/31/2016 Save $500 Download
BSLAREI54BB 54" Width 01/01/2016 - 12/31/2016 Save $500 Download
BSLAREI60BB 60" Width 01/01/2016 - 12/31/2016 Save $500 Download
BSLAREI66BB 66" Width 01/01/2016 - 12/31/2016 Save $500 Download
Bertazzoni Professional Series KU48PRO1X

48 Inch Wall Mount Canopy Range Hood with 600 CFM Internal Blower, Halogen Lights, Mesh Filters and Convertible to Recirculating

KU48PRO1X   01/01/2016 - 12/31/2016 Save Up to $2,350 Download
Prizer Hoods Incline Series INCL

Wall Mount Canopy Range Hood with Optional Blowers, 3-Speed Fan Control, High-Heat Sensor, Halogen Lights, Handcrafted 16 Gauge Material and Baffle Filters

INCL30SS 30" Width, Brushed Stainless Steel 01/01/2016 - 12/31/2016 Save $500 Download
INCL36SS 36" Width, Brushed Stainless Steel 01/01/2016 - 12/31/2016 Save $500 Download
INCL42SS 42" Width, Brushed Stainless Steel 01/01/2016 - 12/31/2016 Save $500 Download
INCL48SS 48" Width, Brushed Stainless Steel 01/01/2016 - 12/31/2016 Save $500 Download
INCL54SS 54" Width, Brushed Stainless Steel 01/01/2016 - 12/31/2016 Save $500 Download
INCL60SS 60" Width, Brushed Stainless Steel 01/01/2016 - 12/31/2016 Save $500 Download
INCL66SS 66" Width, Brushed Stainless Steel 01/01/2016 - 12/31/2016 Save $500 Download
Bosch 300 Series DUH3612UC

36 Inch Under-Cabinet Wall Hood with 280 CFM Internal Blower, 3-Speed Control Fan and Incandescent Lighting

DUH36152UC Stainless Steel 07/01/2016 - 11/30/2016 Save 10% + $200 off 3-Piece Kitchen Package Download
BlueStar Manhattan Series BSMNHTTNIBB

Brushed Brass Island Hood with 3-Speed Blower Options, Hidden Controls, Baffle Filters, Halogen Lamps and Top Discharge

BSMANHI24BB 24" Width 01/01/2016 - 12/31/2016 Save $500 Download
BSMANHI30BB 30" Width 01/01/2016 - 12/31/2016 Save $500 Download
BSMANHI36BB 36" Width 01/01/2016 - 12/31/2016 Save $500 Download
BSMANHI42BB 42" Width 01/01/2016 - 12/31/2016 Save $500 Download
BSMANHI48BB 48" Width 01/01/2016 - 12/31/2016 Save $500 Download
BSMANHI54BB 54" Width 01/01/2016 - 12/31/2016 Save $500 Download
BSMANHI60BB 60" Width 01/01/2016 - 12/31/2016 Save $500 Download
BSMANHI66BB 66" Width 01/01/2016 - 12/31/2016 Save $500 Download
Prizer Hoods Pagoda Series PAGO

Wall Mount Range Hood with Optional Blowers, 3-Speed Fan Control, High-Heat Sensor, Halogen Lights, Handcrafted 16 Gauge Material and Baffle Filters

PAGO30SS 30" Width, Brushed Stainless Steel 01/01/2016 - 12/31/2016 Save $500 Download
PAGO36SS 36" Width, Brushed Stainless Steel 01/01/2016 - 12/31/2016 Save $500 Download
PAGO42SS 42" Width, Brushed Stainless Steel 01/01/2016 - 12/31/2016 Save $500 Download
PAGO48SS 48" Width, Brushed Stainless Steel 01/01/2016 - 12/31/2016 Save $500 Download
PAGO54SS 54" Width, Brushed Stainless Steel 01/01/2016 - 12/31/2016 Save $500 Download
PAGO60SS 60" Width, Brushed Stainless Steel 01/01/2016 - 12/31/2016 Save $500 Download
BlueStar Hampton Series BSHAMPTONIBC

Brushed Copper Island Hood with 3-Speed Blower Options, Hidden Controls, Baffle Filters, Halogen Lamps and Top Exhaust

BSHAMPI30BC 30" Width 01/01/2016 - 12/31/2016 Save $500 Download
BSHAMPI36BC 36" Width 01/01/2016 - 12/31/2016 Save $500 Download
BSHAMPI42BC 42" Width 01/01/2016 - 12/31/2016 Save $500 Download
BSHAMPI48BC 48" Width 01/01/2016 - 12/31/2016 Save $500 Download
BSHAMPI54BC 54" Width 01/01/2016 - 12/31/2016 Save $500 Download
BSHAMPI60BC 60" Width 01/01/2016 - 12/31/2016 Save $500 Download
BSHAMPI66BC 66" Width 01/01/2016 - 12/31/2016 Save $500 Download
Prizer Hoods PMLSS

Professional Wall Mount Custom Hood Insert with Optional Blowers, 3-Speed, High-Heat Sensor, Halogen Lights, Handcrafted 20 Gauge Material and Baffle Filters

PMLSS28SS3 28" Width, 300 CFM Internal Blower 01/01/2016 - 12/31/2016 Save $500 Download
PMLSS34SS 34" Width 01/01/2016 - 12/31/2016 Save $500 Download
PMLSS40SS 40" Width 01/01/2016 - 12/31/2016 Save $500 Download
PMLSS28SS6 28" Width, 600 CFM Internal Blower 01/01/2016 - 12/31/2016 Save $500 Download
PMLSS46SS 46" Width 01/01/2016 - 12/31/2016 Save $500 Download
PMLSS52SS 52" Width 01/01/2016 - 12/31/2016 Save $500 Download
PMLSS58SS 58" Width 01/01/2016 - 12/31/2016 Save $500 Download
PMLSS64SS 64" Width 01/01/2016 - 12/31/2016 Save $500 Download
PMLSS70SS 70" Width 01/01/2016 - 12/31/2016 Save $500 Download
BlueStar Poplar Series BSPOPLARSS

Wall Mount Hood with 3-Speed Blower Options, 750 Color Options, Hidden Controls, Dishwasher Safe Baffle Filters, Halogen Lamps and Reversible Top/Rear Exhaust

BSPOPL30SS 30" Width 01/01/2016 - 12/31/2016 Save $500 Download
BSPOPL36SS 36" Width 01/01/2016 - 12/31/2016 Save $500 Download
BSPOPL42SS 42" Width 01/01/2016 - 12/31/2016 Save $500 Download
BSPOPL48SS 48" Width 01/01/2016 - 12/31/2016 Save $500 Download
BSPOPL54SS 54" Width 01/01/2016 - 12/31/2016 Save $500 Download
BSPOPL60SS 60" Width 01/01/2016 - 12/31/2016 Save $500 Download
BSPOPL66SS 66" Width 01/01/2016 - 12/31/2016 Save $500 Download
BlueStar Santa Fe Series BSSANTAFEBC

Brushed Copper Wall Mount Hood with 3-Speed Blower Options, Hidden Controls, Baffle Filters, Halogen Lamps and Reversible Top/Rear Exhaust

BSSNFE302418BC 30" Width 01/01/2016 - 12/31/2016 Save $500 Download
BSSNFE362418BC 36" Width 01/01/2016 - 12/31/2016 Save $500 Download
BSSNFE422418BC 42" Width 01/01/2016 - 12/31/2016 Save $500 Download
BSSNFE482418BC 48" Width 01/01/2016 - 12/31/2016 Save $500 Download
BSSNFE542418BC 54" Width 01/01/2016 - 12/31/2016 Save $500 Download
BSSNFE602418BC 60" Width 01/01/2016 - 12/31/2016 Save $500 Download
BSSNFE662418BC 66" Width 01/01/2016 - 12/31/2016 Save $500 Download
BlueStar Bonanza Series BSBONANZABB

Brushed Brass Wall Mount Hood with 3-Speed Blower Options, Hidden Controls, Baffle Filters, Halogen Lamps and Reversible Top/Rear Exhaust

BSBONZ30BB 30" Width 01/01/2016 - 12/31/2016 Save $500 Download
BSBONZ36BB 36" Width 01/01/2016 - 12/31/2016 Save $500 Download
BSBONZ42BB 42" Width 01/01/2016 - 12/31/2016 Save $500 Download
BSBONZ48BB 48" Width 01/01/2016 - 12/31/2016 Save $500 Download
BSBONZ54BB 54" Width 01/01/2016 - 12/31/2016 Save $500 Download
BSBONZ60BB 60" Width 01/01/2016 - 12/31/2016 Save $500 Download
BSBONZ66BB 66" Width 01/01/2016 - 12/31/2016 Save $500 Download

Sort:

Displaying 81 - 100 of 254 Products 20 40 50 products per page  

1

2

3

4

5

6

7

8

Expand Your Results

Remove Category:

Remove Approved for Outdoor Use:

Are you a builder
Quick LookQuick Look

© 2016, AJ Madison Inc. or its affiliates